Date,TemperatureHighF,TemperatureAvgF,TemperatureLowF,DewpointHighF,DewpointAvgF,DewpointLowF,HumidityHigh,HumidityAvg,HumidityLow,PressureMaxIn,PressureMinIn,WindSpeedMaxMPH,WindSpeedAvgMPH,GustSpeedMaxMPH,PrecipitationSumIn
2013-2-1,29.2,23.4,16.3,23.0,8.7,3.0,84,54,43,30.33,29.78,19,6,24,0.00
2013-2-2,26.6,20.5,11.6,21.0,11.9,4.0,85,70,52,30.33,29.96,5,1,8,0.00
2013-2-3,34.8,27.4,20.6,29.0,22.9,15.0,93,83,60,29.96,29.76,11,2,18,0.00
2013-2-4,36.3,29.9,23.1,28.0,16.9,11.0,90,60,44,30.04,29.82,10,2,21,0.00
2013-2-5,36.4,32.2,29.4,33.0,29.9,28.0,96,91,84,29.88,29.79,2,0,5,0.02
2013-2-6,38.7,33.1,24.4,31.0,26.7,20.0,96,78,61,30.30,29.88,11,2,14,0.00
2013-2-7,38.0,30.9,22.4,28.0,23.0,19.0,89,73,57,30.37,30.16,7,1,11,0.00
2013-2-8,39.7,34.6,32.1,35.0,28.2,22.0,91,78,63,30.15,29.75,20,4,35,0.01
2013-2-9,39.2,31.2,23.6,23.0,17.5,14.0,69,58,38,30.35,29.93,19,6,32,0.00
2013-2-10,44.5,32.0,15.9,23.0,17.7,13.0,89,60,34,30.41,30.13,6,1,12,0.00
2013-2-11,60.9,46.4,34.3,49.0,36.3,22.0,95,72,27,30.14,29.61,12,3,22,0.12
2013-2-12,54.3,46.8,32.6,30.0,26.4,23.0,75,46,32,29.93,29.79,12,4,23,0.00
2013-2-13,42.4,33.8,26.2,33.0,27.9,23.0,96,80,57,29.88,29.61,3,0,6,0.05
2013-2-14,49.7,38.1,27.7,34.0,29.6,26.0,96,74,48,29.95,29.73,6,1,9,0.02
2013-2-15,56.0,39.2,27.8,36.0,31.4,24.0,95,76,43,29.98,29.87,10,1,14,0.19
2013-2-16,37.0,32.7,27.4,33.0,24.9,16.0,97,75,52,29.94,29.82,11,3,16,0.00
2013-2-17,30.4,25.4,21.3,18.0,11.3,5.0,73,56,41,30.18,29.82,18,7,26,0.00
2013-2-18,41.1,30.3,13.9,18.0,10.7,5.0,73,46,32,30.33,30.05,7,1,16,0.00
2013-2-19,49.2,38.8,27.5,41.0,27.1,18.0,86,64,43,30.04,29.60,16,3,26,0.05
2013-2-20,35.2,29.1,24.0,20.0,12.9,8.0,56,51,43,30.12,29.80,20,7,28,0.00
2013-2-21,37.1,28.4,22.7,16.0,13.6,9.0,67,55,42,30.29,30.09,16,5,24,0.00
2013-2-22,31.6,27.5,24.9,28.0,19.9,16.0,88,73,63,30.32,30.13,4,1,8,0.02
2013-2-23,46.2,36.8,31.6,39.0,33.8,28.0,95,89,77,30.13,29.77,3,1,7,0.01
2013-2-24,49.3,38.6,27.1,37.0,28.5,18.0,95,69,42,30.07,29.75,18,4,23,0.00
2013-2-25,46.2,33.5,20.6,25.0,21.2,17.0,88,63,40,30.16,30.07,5,1,8,0.00
2013-2-26,40.3,33.7,25.4,38.0,29.8,21.0,96,86,68,30.15,29.59,11,2,16,0.74
2013-2-27,54.0,43.2,35.7,43.0,35.4,32.0,97,76,49,29.64,29.51,13,3,20,0.02
2013-2-28,43.8,40.2,34.5,34.0,28.8,26.0,81,64,54,29.68,29.58,13,4,19,0.00